sensor_id;sensor_type;location;lat;lon;timestamp;pressure;altitude;pressure_sealevel;temperature;humidity
71735;BME280;59577;52.122;5.406;2023-11-21T00:01:03;101160.56;;;6.18;100.00
71735;BME280;59577;52.122;5.406;2023-11-21T00:03:31;101156.09;;;6.05;100.00
71735;BME280;59577;52.122;5.406;2023-11-21T00:05:58;101163.06;;;5.97;100.00
71735;BME280;59577;52.122;5.406;2023-11-21T00:08:24;101164.72;;;5.93;100.00
71735;BME280;59577;52.122;5.406;2023-11-21T00:10:51;101173.13;;;5.92;100.00
71735;BME280;59577;52.122;5.406;2023-11-21T00:13:18;101173.28;;;5.95;100.00
71735;BME280;59577;52.122;5.406;2023-11-21T00:15:44;101175.16;;;5.95;100.00
71735;BME280;59577;52.122;5.406;2023-11-21T00:18:12;101170.34;;;6.06;100.00
71735;BME280;59577;52.122;5.406;2023-11-21T00:20:38;101179.38;;;6.10;100.00
71735;BME280;59577;52.122;5.406;2023-11-21T00:23:05;101172.56;;;6.12;100.00
71735;BME280;59577;52.122;5.406;2023-11-21T00:25:31;101179.97;;;6.07;100.00
71735;BME280;59577;52.122;5.406;2023-11-21T00:27:58;101177.59;;;6.05;100.00
71735;BME280;59577;52.122;5.406;2023-11-21T00:30:25;101180.91;;;6.02;100.00
71735;BME280;59577;52.122;5.406;2023-11-21T00:32:52;101182.94;;;5.96;100.00
71735;BME280;59577;52.122;5.406;2023-11-21T00:35:18;101179.97;;;5.98;100.00
71735;BME280;59577;52.122;5.406;2023-11-21T00:37:45;101180.44;;;6.00;100.00
71735;BME280;59577;52.122;5.406;2023-11-21T00:40:12;101184.25;;;5.99;100.00
71735;BME280;59577;52.122;5.406;2023-11-21T00:42:39;101178.97;;;5.94;100.00
71735;BME280;59577;52.122;5.406;2023-11-21T00:45:06;101184.19;;;5.90;100.00
71735;BME280;59577;52.122;5.406;2023-11-21T00:47:33;101188.56;;;5.86;100.00
71735;BME280;59577;52.122;5.406;2023-11-21T00:50:00;101181.78;;;5.80;100.00
71735;BME280;59577;52.122;5.406;2023-11-21T00:52:26;101184.59;;;5.75;100.00
71735;BME280;59577;52.122;5.406;2023-11-21T00:54:53;101194.22;;;5.76;100.00
71735;BME280;59577;52.122;5.406;2023-11-21T00:57:20;101195.38;;;5.83;100.00
71735;BME280;59577;52.122;5.406;2023-11-21T00:59:46;101201.06;;;5.82;100.00
71735;BME280;59577;52.122;5.406;2023-11-21T01:02:13;101198.47;;;5.68;100.00
71735;BME280;59577;52.122;5.406;2023-11-21T01:04:40;101214.41;;;5.64;100.00
71735;BME280;59577;52.122;5.406;2023-11-21T01:07:06;101211.13;;;5.68;100.00
71735;BME280;59577;52.122;5.406;2023-11-21T01:09:33;101213.84;;;5.76;100.00
71735;BME280;59577;52.122;5.406;2023-11-21T01:12:00;101218.75;;;5.83;100.00
71735;BME280;59577;52.122;5.406;2023-11-21T01:14:27;101218.94;;;5.87;100.00
71735;BME280;59577;52.122;5.406;2023-11-21T01:16:54;101220.66;;;5.82;100.00
71735;BME280;59577;52.122;5.406;2023-11-21T01:19:21;101224.31;;;5.87;100.00
71735;BME280;59577;52.122;5.406;2023-11-21T01:21:47;101218.25;;;5.81;100.00
71735;BME280;59577;52.122;5.406;2023-11-21T01:24:14;101224.59;;;5.76;100.00
71735;BME280;59577;52.122;5.406;2023-11-21T01:26:40;101216.00;;;5.74;100.00
71735;BME280;59577;52.122;5.406;2023-11-21T01:29:07;101209.38;;;5.72;100.00
71735;BME280;59577;52.122;5.406;2023-11-21T01:31:33;101217.28;;;5.68;100.00
71735;BME280;59577;52.122;5.406;2023-11-21T01:34:00;101215.97;;;5.65;100.00
71735;BME280;59577;52.122;5.406;2023-11-21T01:36:33;101223.06;;;5.61;100.00
71735;BME280;59577;52.122;5.406;2023-11-21T01:39:00;101218.97;;;5.64;100.00
71735;BME280;59577;52.122;5.406;2023-11-21T01:41:27;101227.56;;;5.75;100.00
71735;BME280;59577;52.122;5.406;2023-11-21T01:43:55;101228.69;;;5.82;100.00
71735;BME280;59577;52.122;5.406;2023-11-21T01:46:22;101225.53;;;5.80;100.00
71735;BME280;59577;52.122;5.406;2023-11-21T01:48:50;101228.84;;;5.77;100.00
71735;BME280;59577;52.122;5.406;2023-11-21T01:51:17;101242.13;;;5.82;100.00
71735;BME280;59577;52.122;5.406;2023-11-21T01:53:45;101238.69;;;5.91;100.00
71735;BME280;59577;52.122;5.406;2023-11-21T01:56:13;101240.78;;;5.94;100.00
71735;BME280;59577;52.122;5.406;2023-11-21T01:58:40;101239.06;;;5.98;100.00
71735;BME280;59577;52.122;5.406;2023-11-21T02:01:07;101244.91;;;6.00;100.00
71735;BME280;59577;52.122;5.406;2023-11-21T02:03:33;101236.56;;;6.01;100.00
71735;BME280;59577;52.122;5.406;2023-11-21T02:06:00;101242.09;;;6.05;100.00
71735;BME280;59577;52.122;5.406;2023-11-21T02:08:26;101250.31;;;6.09;100.00
71735;BME280;59577;52.122;5.406;2023-11-21T02:10:53;101257.00;;;6.11;100.00
71735;BME280;59577;52.122;5.406;2023-11-21T02:13:19;101265.22;;;6.15;100.00
71735;BME280;59577;52.122;5.406;2023-11-21T02:15:46;101266.47;;;6.17;100.00
71735;BME280;59577;52.122;5.406;2023-11-21T02:18:13;101270.78;;;6.18;100.00
71735;BME280;59577;52.122;5.406;2023-11-21T02:20:41;101272.38;;;6.19;100.00
71735;BME280;59577;52.122;5.406;2023-11-21T02:23:09;101276.31;;;6.22;100.00
71735;BME280;59577;52.122;5.406;2023-11-21T02:25:35;101260.97;;;6.22;100.00
71735;BME280;59577;52.122;5.406;2023-11-21T02:28:04;101273.00;;;6.25;100.00
71735;BME280;59577;52.122;5.406;2023-11-21T02:30:30;101278.56;;;6.29;100.00
71735;BME280;59577;52.122;5.406;2023-11-21T02:33:01;101276.34;;;6.31;100.00
71735;BME280;59577;52.122;5.406;2023-11-21T02:35:28;101275.72;;;6.34;100.00
71735;BME280;59577;52.122;5.406;2023-11-21T02:37:57;101285.34;;;6.35;100.00
71735;BME280;59577;52.122;5.406;2023-11-21T02:40:24;101278.41;;;6.34;100.00
71735;BME280;59577;52.122;5.406;2023-11-21T02:42:52;101279.38;;;6.38;100.00
71735;BME280;59577;52.122;5.406;2023-11-21T02:45:22;101283.81;;;6.43;100.00
71735;BME280;59577;52.122;5.406;2023-11-21T02:47:48;101278.44;;;6.43;100.00
71735;BME280;59577;52.122;5.406;2023-11-21T02:50:16;101284.28;;;6.45;100.00
71735;BME280;59577;52.122;5.406;2023-11-21T02:52:45;101287.63;;;6.50;100.00
71735;BME280;59577;52.122;5.406;2023-11-21T02:55:12;101290.97;;;6.56;100.00
71735;BME280;59577;52.122;5.406;2023-11-21T02:57:38;101282.25;;;6.59;100.00
71735;BME280;59577;52.122;5.406;2023-11-21T03:00:05;101284.03;;;6.64;100.00
71735;BME280;59577;52.122;5.406;2023-11-21T03:02:34;101286.41;;;6.65;100.00
71735;BME280;59577;52.122;5.406;2023-11-21T03:05:07;101276.13;;;6.67;100.00
71735;BME280;59577;52.122;5.406;2023-11-21T03:07:37;101281.19;;;6.69;100.00
71735;BME280;59577;52.122;5.406;2023-11-21T03:10:03;101282.94;;;6.73;100.00
71735;BME280;59577;52.122;5.406;2023-11-21T03:12:30;101281.50;;;6.76;100.00
71735;BME280;59577;52.122;5.406;2023-11-21T03:14:57;101272.50;;;6.81;100.00
71735;BME280;59577;52.122;5.406;2023-11-21T03:17:23;101268.38;;;6.83;100.00
71735;BME280;59577;52.122;5.406;2023-11-21T03:19:50;101271.22;;;6.87;100.00
71735;BME280;59577;52.122;5.406;2023-11-21T03:22:18;101275.50;;;6.88;100.00
71735;BME280;59577;52.122;5.406;2023-11-21T03:24:45;101275.19;;;6.89;100.00
71735;BME280;59577;52.122;5.406;2023-11-21T03:27:12;101278.69;;;6.90;100.00
71735;BME280;59577;52.122;5.406;2023-11-21T03:29:38;101275.19;;;6.89;100.00
71735;BME280;59577;52.122;5.406;2023-11-21T03:32:06;101283.28;;;6.89;100.00
71735;BME280;59577;52.122;5.406;2023-11-21T03:34:33;101282.50;;;6.89;100.00
71735;BME280;59577;52.122;5.406;2023-11-21T03:37:00;101284.38;;;6.88;100.00
71735;BME280;59577;52.122;5.406;2023-11-21T03:39:26;101287.88;;;6.89;100.00
71735;BME280;59577;52.122;5.406;2023-11-21T03:41:53;101283.28;;;6.89;100.00
71735;BME280;59577;52.122;5.406;2023-11-21T03:44:20;101294.81;;;6.90;100.00
71735;BME280;59577;52.122;5.406;2023-11-21T03:46:46;101288.03;;;6.92;100.00
71735;BME280;59577;52.122;5.406;2023-11-21T03:49:13;101295.78;;;6.94;100.00
71735;BME280;59577;52.122;5.406;2023-11-21T03:51:39;101298.47;;;6.94;100.00
71735;BME280;59577;52.122;5.406;2023-11-21T03:54:06;101305.59;;;6.99;100.00
71735;BME280;59577;52.122;5.406;2023-11-21T03:56:32;101308.28;;;6.99;100.00
71735;BME280;59577;52.122;5.406;2023-11-21T03:58:59;101301.34;;;6.97;100.00
71735;BME280;59577;52.122;5.406;2023-11-21T04:01:25;101308.75;;;7.01;100.00
71735;BME280;59577;52.122;5.406;2023-11-21T04:03:52;101316.69;;;7.06;100.00
71735;BME280;59577;52.122;5.406;2023-11-21T04:06:19;101317.97;;;7.08;100.00
71735;BME280;59577;52.122;5.406;2023-11-21T04:08:45;101320.81;;;7.12;100.00
71735;BME280;59577;52.122;5.406;2023-11-21T04:11:12;101314.34;;;7.13;100.00
71735;BME280;59577;52.122;5.406;2023-11-21T04:13:39;101320.50;;;7.13;100.00
71735;BME280;59577;52.122;5.406;2023-11-21T04:16:07;101329.53;;;7.18;100.00
71735;BME280;59577;52.122;5.406;2023-11-21T04:18:36;101333.81;;;7.19;100.00
71735;BME280;59577;52.122;5.406;2023-11-21T04:21:06;101338.88;;;7.20;100.00
71735;BME280;59577;52.122;5.406;2023-11-21T04:23:35;101328.09;;;7.20;100.00
71735;BME280;59577;52.122;5.406;2023-11-21T04:26:02;101340.44;;;7.21;100.00
71735;BME280;59577;52.122;5.406;2023-11-21T04:28:29;101331.28;;;7.22;100.00
71735;BME280;59577;52.122;5.406;2023-11-21T04:30:56;101347.13;;;7.24;100.00
71735;BME280;59577;52.122;5.406;2023-11-21T04:33:22;101347.91;;;7.24;100.00
71735;BME280;59577;52.122;5.406;2023-11-21T04:35:49;101349.03;;;7.23;100.00
71735;BME280;59577;52.122;5.406;2023-11-21T04:38:16;101353.28;;;7.24;100.00
71735;BME280;59577;52.122;5.406;2023-11-21T04:40:42;101355.66;;;7.26;100.00
71735;BME280;59577;52.122;5.406;2023-11-21T04:43:09;101368.50;;;7.29;100.00
71735;BME280;59577;52.122;5.406;2023-11-21T04:45:35;101371.97;;;7.29;100.00
71735;BME280;59577;52.122;5.406;2023-11-21T04:48:02;101369.75;;;7.31;100.00
71735;BME280;59577;52.122;5.406;2023-11-21T04:50:28;101370.56;;;7.32;100.00
71735;BME280;59577;52.122;5.406;2023-11-21T04:52:55;101371.03;;;7.34;100.00
71735;BME280;59577;52.122;5.406;2023-11-21T04:55:21;101369.59;;;7.37;100.00
71735;BME280;59577;52.122;5.406;2023-11-21T04:57:48;101371.97;;;7.38;100.00
71735;BME280;59577;52.122;5.406;2023-11-21T05:00:15;101366.59;;;7.38;100.00
71735;BME280;59577;52.122;5.406;2023-11-21T05:02:42;101368.97;;;7.40;100.00
71735;BME280;59577;52.122;5.406;2023-11-21T05:05:11;101370.06;;;7.39;100.00
71735;BME280;59577;52.122;5.406;2023-11-21T05:07:39;101376.28;;;7.39;100.00
71735;BME280;59577;52.122;5.406;2023-11-21T05:10:06;101384.03;;;7.41;100.00
71735;BME280;59577;52.122;5.406;2023-11-21T05:12:40;101381.00;;;7.42;100.00
71735;BME280;59577;52.122;5.406;2023-11-21T05:15:08;101388.28;;;7.42;100.00
71735;BME280;59577;52.122;5.406;2023-11-21T05:17:39;101392.59;;;7.43;100.00
71735;BME280;59577;52.122;5.406;2023-11-21T05:20:10;101389.06;;;7.42;100.00
71735;BME280;59577;52.122;5.406;2023-11-21T05:22:38;101401.44;;;7.43;100.00
71735;BME280;59577;52.122;5.406;2023-11-21T05:25:05;101403.03;;;7.44;100.00
71735;BME280;59577;52.122;5.406;2023-11-21T05:27:34;101397.34;;;7.46;100.00
71735;BME280;59577;52.122;5.406;2023-11-21T05:30:02;101399.38;;;7.49;100.00
71735;BME280;59577;52.122;5.406;2023-11-21T05:32:32;101399.06;;;7.50;100.00
71735;BME280;59577;52.122;5.406;2023-11-21T05:34:59;101407.31;;;7.54;100.00
71735;BME280;59577;52.122;5.406;2023-11-21T05:37:26;101410.81;;;7.55;100.00
71735;BME280;59577;52.122;5.406;2023-11-21T05:39:53;101413.97;;;7.57;100.00
71735;BME280;59577;52.122;5.406;2023-11-21T05:42:23;101412.84;;;7.58;100.00
71735;BME280;59577;52.122;5.406;2023-11-21T05:44:49;101414.44;;;7.59;100.00
71735;BME280;59577;52.122;5.406;2023-11-21T05:47:16;101420.63;;;7.59;100.00
71735;BME280;59577;52.122;5.406;2023-11-21T05:49:43;101424.91;;;7.60;100.00
71735;BME280;59577;52.122;5.406;2023-11-21T05:52:11;101429.19;;;7.61;100.00
71735;BME280;59577;52.122;5.406;2023-11-21T05:54:38;101429.19;;;7.61;100.00
71735;BME280;59577;52.122;5.406;2023-11-21T05:57:04;101436.16;;;7.62;100.00
71735;BME280;59577;52.122;5.406;2023-11-21T05:59:31;101439.66;;;7.63;100.00
71735;BME280;59577;52.122;5.406;2023-11-21T06:01:58;101443.94;;;7.64;100.00
71735;BME280;59577;52.122;5.406;2023-11-21T06:04:25;101443.16;;;7.63;100.00
71735;BME280;59577;52.122;5.406;2023-11-21T06:06:52;101441.25;;;7.64;100.00
71735;BME280;59577;52.122;5.406;2023-11-21T06:09:19;101450.09;;;7.64;100.00
71735;BME280;59577;52.122;5.406;2023-11-21T06:11:45;101458.66;;;7.66;100.00
71735;BME280;59577;52.122;5.406;2023-11-21T06:14:12;101458.84;;;7.70;100.00
71735;BME280;59577;52.122;5.406;2023-11-21T06:16:38;101462.78;;;7.72;100.00
71735;BME280;59577;52.122;5.406;2023-11-21T06:19:06;101460.56;;;7.75;100.00
71735;BME280;59577;52.122;5.406;2023-11-21T06:21:33;101461.03;;;7.77;100.00
71735;BME280;59577;52.122;5.406;2023-11-21T06:24:00;101468.81;;;7.78;100.00
71735;BME280;59577;52.122;5.406;2023-11-21T06:26:27;101473.09;;;7.79;100.00
71735;BME280;59577;52.122;5.406;2023-11-21T06:28:54;101467.88;;;7.83;100.00
71735;BME280;59577;52.122;5.406;2023-11-21T06:31:21;101467.56;;;7.84;100.00
71735;BME280;59577;52.122;5.406;2023-11-21T06:33:48;101473.75;;;7.85;100.00
71735;BME280;59577;52.122;5.406;2023-11-21T06:36:15;101466.44;;;7.85;100.00
71735;BME280;59577;52.122;5.406;2023-11-21T06:38:41;101474.19;;;7.87;100.00
71735;BME280;59577;52.122;5.406;2023-11-21T06:41:07;101468.50;;;7.88;100.00
71735;BME280;59577;52.122;5.406;2023-11-21T06:43:34;101480.88;;;7.89;100.00
71735;BME280;59577;52.122;5.406;2023-11-21T06:46:02;101478.66;;;7.91;100.00
71735;BME280;59577;52.122;5.406;2023-11-21T06:48:30;101483.72;;;7.93;100.00
71735;BME280;59577;52.122;5.406;2023-11-21T06:50:57;101487.69;;;7.96;100.00
71735;BME280;59577;52.122;5.406;2023-11-21T06:53:24;101492.75;;;7.97;100.00
71735;BME280;59577;52.122;5.406;2023-11-21T06:55:51;101492.44;;;7.99;100.00
71735;BME280;59577;52.122;5.406;2023-11-21T06:58:17;101494.97;;;8.04;100.00
71735;BME280;59577;52.122;5.406;2023-11-21T07:00:43;101496.56;;;8.05;100.00
71735;BME280;59577;52.122;5.406;2023-11-21T07:03:13;101505.13;;;8.07;100.00
71735;BME280;59577;52.122;5.406;2023-11-21T07:05:39;101507.22;;;8.10;100.00
71735;BME280;59577;52.122;5.406;2023-11-21T07:08:06;101519.25;;;8.13;100.00
71735;BME280;59577;52.122;5.406;2023-11-21T07:10:34;101520.84;;;8.14;100.00
71735;BME280;59577;52.122;5.406;2023-11-21T07:13:03;101515.59;;;8.17;100.00
71735;BME280;59577;52.122;5.406;2023-11-21T07:15:29;101524.47;;;8.18;100.00
71735;BME280;59577;52.122;5.406;2023-11-21T07:17:55;101532.25;;;8.19;100.00
71735;BME280;59577;52.122;5.406;2023-11-21T07:20:22;101524.63;;;8.21;100.00
71735;BME280;59577;52.122;5.406;2023-11-21T07:22:49;101540.50;;;8.23;100.00
71735;BME280;59577;52.122;5.406;2023-11-21T07:25:15;101540.19;;;8.24;100.00
71735;BME280;59577;52.122;5.406;2023-11-21T07:27:43;101548.28;;;8.24;100.00
71735;BME280;59577;52.122;5.406;2023-11-21T07:30:10;101549.53;;;8.27;100.00
71735;BME280;59577;52.122;5.406;2023-11-21T07:32:37;101555.88;;;8.31;100.00
71735;BME280;59577;52.122;5.406;2023-11-21T07:35:06;101547.47;;;8.33;100.00
71735;BME280;59577;52.122;5.406;2023-11-21T07:37:34;101544.63;;;8.38;100.00
71735;BME280;59577;52.122;5.406;2023-11-21T07:40:00;101550.81;;;8.38;100.00
71735;BME280;59577;52.122;5.406;2023-11-21T07:42:27;101550.69;;;8.43;100.00
71735;BME280;59577;52.122;5.406;2023-11-21T07:44:54;101553.84;;;8.45;100.00
71735;BME280;59577;52.122;5.406;2023-11-21T07:47:20;101550.97;;;8.51;100.00
71735;BME280;59577;52.122;5.406;2023-11-21T07:49:47;101556.06;;;8.52;100.00
71735;BME280;59577;52.122;5.406;2023-11-21T07:52:13;101569.22;;;8.54;100.00
71735;BME280;59577;52.122;5.406;2023-11-21T07:54:42;101568.59;;;8.57;100.00
71735;BME280;59577;52.122;5.406;2023-11-21T07:57:09;101569.06;;;8.59;100.00
71735;BME280;59577;52.122;5.406;2023-11-21T07:59:40;101576.84;;;8.60;100.00
71735;BME280;59577;52.122;5.406;2023-11-21T08:02:09;101578.91;;;8.63;100.00
71735;BME280;59577;52.122;5.406;2023-11-21T08:04:36;101587.63;;;8.69;100.00
71735;BME280;59577;52.122;5.406;2023-11-21T08:07:02;101589.84;;;8.76;100.00
71735;BME280;59577;52.122;5.406;2023-11-21T08:09:30;101592.84;;;8.83;100.00
71735;BME280;59577;52.122;5.406;2023-11-21T08:11:57;101605.41;;;8.88;100.00
71735;BME280;59577;52.122;5.406;2023-11-21T08:14:23;101607.56;;;8.94;100.00
71735;BME280;59577;52.122;5.406;2023-11-21T08:16:51;101611.56;;;8.97;100.00
71735;BME280;59577;52.122;5.406;2023-11-21T08:19:18;101618.22;;;8.99;100.00
71735;BME280;59577;52.122;5.406;2023-11-21T08:21:45;101623.59;;;8.99;100.00
71735;BME280;59577;52.122;5.406;2023-11-21T08:24:12;101632.19;;;9.01;100.00
71735;BME280;59577;52.122;5.406;2023-11-21T08:26:38;101632.66;;;9.03;100.00
71735;BME280;59577;52.122;5.406;2023-11-21T08:29:05;101633.28;;;9.09;100.00
71735;BME280;59577;52.122;5.406;2023-11-21T08:31:33;101636.59;;;9.15;100.00
71735;BME280;59577;52.122;5.406;2023-11-21T08:34:00;101645.66;;;9.19;100.00
71735;BME280;59577;52.122;5.406;2023-11-21T08:36:29;101652.50;;;9.16;100.00
71735;BME280;59577;52.122;5.406;2023-11-21T08:38:58;101660.59;;;9.16;100.00
71735;BME280;59577;52.122;5.406;2023-11-21T08:41:24;101668.69;;;9.16;100.00
71735;BME280;59577;52.122;5.406;2023-11-21T08:43:51;101667.59;;;9.17;100.00
71735;BME280;59577;52.122;5.406;2023-11-21T08:46:18;101669.97;;;9.19;100.00
71735;BME280;59577;52.122;5.406;2023-11-21T08:48:46;101676.94;;;9.20;100.00
71735;BME280;59577;52.122;5.406;2023-11-21T08:51:12;101677.56;;;9.26;100.00
71735;BME280;59577;52.122;5.406;2023-11-21T08:53:40;101679.78;;;9.32;100.00
71735;BME280;59577;52.122;5.406;2023-11-21T08:56:07;101680.41;;;9.38;100.00
71735;BME280;59577;52.122;5.406;2023-11-21T08:58:35;101682.44;;;9.41;100.00
71735;BME280;59577;52.122;5.406;2023-11-21T09:01:04;101674.97;;;9.47;100.00
71735;BME280;59577;52.122;5.406;2023-11-21T09:03:31;101674.81;;;9.52;100.00
71735;BME280;59577;52.122;5.406;2023-11-21T09:06:00;101679.50;;;9.64;100.00
71735;BME280;59577;52.122;5.406;2023-11-21T09:08:27;101694.72;;;9.77;100.00
71735;BME280;59577;52.122;5.406;2023-11-21T09:10:55;101698.22;;;9.86;100.00
71735;BME280;59577;52.122;5.406;2023-11-21T09:13:22;101708.03;;;9.91;100.00
71735;BME280;59577;52.122;5.406;2023-11-21T09:15:51;101712.94;;;9.97;100.00
71735;BME280;59577;52.122;5.406;2023-11-21T09:18:18;101711.81;;;9.98;100.00
71735;BME280;59577;52.122;5.406;2023-11-21T09:20:45;101719.13;;;9.98;100.00
71735;BME280;59577;52.122;5.406;2023-11-21T09:23:11;101715.97;;;9.96;100.00
71735;BME280;59577;52.122;5.406;2023-11-21T09:25:38;101712.78;;;9.94;100.00
71735;BME280;59577;52.122;5.406;2023-11-21T09:28:05;101727.91;;;9.95;100.00
71735;BME280;59577;52.122;5.406;2023-11-21T09:30:35;101732.84;;;9.93;100.00
71735;BME280;59577;52.122;5.406;2023-11-21T09:33:04;101728.88;;;9.90;100.00
71735;BME280;59577;52.122;5.406;2023-11-21T09:35:37;101733.50;;;9.90;100.00
71735;BME280;59577;52.122;5.406;2023-11-21T09:38:04;101749.59;;;9.86;100.00
71735;BME280;59577;52.122;5.406;2023-11-21T09:40:37;101750.88;;;9.80;100.00
71735;BME280;59577;52.122;5.406;2023-11-21T09:43:07;101756.91;;;9.77;100.00
71735;BME280;59577;52.122;5.406;2023-11-21T09:45:35;101761.41;;;9.73;100.00
71735;BME280;59577;52.122;5.406;2023-11-21T09:48:02;101769.50;;;9.73;100.00
71735;BME280;59577;52.122;5.406;2023-11-21T09:50:29;101772.06;;;9.69;100.00
71735;BME280;59577;52.122;5.406;2023-11-21T09:53:02;101775.88;;;9.68;100.00
71735;BME280;59577;52.122;5.406;2023-11-21T09:55:34;101774.63;;;9.66;100.00
71735;BME280;59577;52.122;5.406;2023-11-21T09:58:03;101782.41;;;9.67;100.00
71735;BME280;59577;52.122;5.406;2023-11-21T10:00:32;101784.28;;;9.67;100.00
71735;BME280;59577;52.122;5.406;2023-11-21T10:02:59;101784.94;;;9.64;100.00
71735;BME280;59577;52.122;5.406;2023-11-21T10:05:26;101783.34;;;9.63;100.00
71735;BME280;59577;52.122;5.406;2023-11-21T10:07:55;101789.88;;;9.62;100.00
71735;BME280;59577;52.122;5.406;2023-11-21T10:10:24;101795.59;;;9.60;100.00
71735;BME280;59577;52.122;5.406;2023-11-21T10:12:55;101787.66;;;9.55;100.00
71735;BME280;59577;52.122;5.406;2023-11-21T10:15:22;101799.13;;;9.52;100.00
71735;BME280;59577;52.122;5.406;2023-11-21T10:17:49;101804.22;;;9.53;100.00
71735;BME280;59577;52.122;5.406;2023-11-21T10:20:16;101803.56;;;9.56;100.00
71735;BME280;59577;52.122;5.406;2023-11-21T10:22:44;101817.38;;;9.64;100.00
71735;BME280;59577;52.122;5.406;2023-11-21T10:25:10;101821.19;;;9.71;100.00
71735;BME280;59577;52.122;5.406;2023-11-21T10:27:37;101821.03;;;9.76;100.00
71735;BME280;59577;52.122;5.406;2023-11-21T10:30:07;101828.97;;;9.82;100.00
71735;BME280;59577;52.122;5.406;2023-11-21T10:32:39;101823.69;;;9.85;100.00
71735;BME280;59577;52.122;5.406;2023-11-21T10:35:08;101830.22;;;9.84;100.00
71735;BME280;59577;52.122;5.406;2023-11-21T10:37:38;101837.25;;;9.76;100.00
71735;BME280;59577;52.122;5.406;2023-11-21T10:40:10;101845.84;;;9.70;100.00
71735;BME280;59577;52.122;5.406;2023-11-21T10:42:40;101852.19;;;9.65;100.00
71735;BME280;59577;52.122;5.406;2023-11-21T10:45:08;101860.78;;;9.58;100.00
71735;BME280;59577;52.122;5.406;2023-11-21T10:47:42;101869.56;;;9.55;100.00
71735;BME280;59577;52.122;5.406;2023-11-21T10:50:09;101872.88;;;9.52;100.00
71735;BME280;59577;52.122;5.406;2023-11-21T10:52:39;101881.63;;;9.49;100.00
71735;BME280;59577;52.122;5.406;2023-11-21T10:55:26;101879.88;;;9.45;100.00
71735;BME280;59577;52.122;5.406;2023-11-21T10:57:54;101882.09;;;9.43;100.00
71735;BME280;59577;52.122;5.406;2023-11-21T11:00:24;101884.78;;;9.43;100.00
71735;BME280;59577;52.122;5.406;2023-11-21T11:02:52;101895.28;;;9.44;100.00
71735;BME280;59577;52.122;5.406;2023-11-21T11:05:21;101893.06;;;9.46;100.00
71735;BME280;59577;52.122;5.406;2023-11-21T11:07:51;101894.03;;;9.50;100.00
71735;BME280;59577;52.122;5.406;2023-11-21T11:10:21;101891.34;;;9.50;100.00
71735;BME280;59577;52.122;5.406;2023-11-21T11:12:49;101892.59;;;9.53;100.00
71735;BME280;59577;52.122;5.406;2023-11-21T11:15:16;101888.47;;;9.55;100.00
71735;BME280;59577;52.122;5.406;2023-11-21T11:17:44;101891.66;;;9.57;100.00
71735;BME280;59577;52.122;5.406;2023-11-21T11:20:13;101896.59;;;9.55;100.00
71735;BME280;59577;52.122;5.406;2023-11-21T11:25:42;101899.28;;;9.55;100.00
71735;BME280;59577;52.122;5.406;2023-11-21T11:28:18;101903.09;;;9.54;100.00
71735;BME280;59577;52.122;5.406;2023-11-21T11:31:05;101895.91;;;9.50;100.00
71735;BME280;59577;52.122;5.406;2023-11-21T11:33:45;101903.72;;;9.51;100.00
71735;BME280;59577;52.122;5.406;2023-11-21T11:36:37;101907.41;;;9.55;100.00
71735;BME280;59577;52.122;5.406;2023-11-21T11:39:36;101907.06;;;9.57;100.00
71735;BME280;59577;52.122;5.406;2023-11-21T11:42:08;101904.53;;;9.60;100.00
71735;BME280;59577;52.122;5.406;2023-11-21T11:47:32;101913.59;;;9.65;100.00
71735;BME280;59577;52.122;5.406;2023-11-21T11:50:06;101916.59;;;9.63;100.00
71735;BME280;59577;52.122;5.406;2023-11-21T11:52:35;101915.03;;;9.62;100.00
71735;BME280;59577;52.122;5.406;2023-11-21T11:55:03;101925.50;;;9.64;100.00
71735;BME280;59577;52.122;5.406;2023-11-21T11:57:31;101932.19;;;9.66;100.00
71735;BME280;59577;52.122;5.406;2023-11-21T12:00:07;101931.41;;;9.66;100.00
71735;BME280;59577;52.122;5.406;2023-11-21T12:02:40;101934.72;;;9.71;100.00
71735;BME280;59577;52.122;5.406;2023-11-21T12:05:15;101937.59;;;9.75;100.00
71735;BME280;59577;52.122;5.406;2023-11-21T12:07:52;101944.59;;;9.76;100.00
71735;BME280;59577;52.122;5.406;2023-11-21T12:10:22;101951.13;;;9.75;100.00
71735;BME280;59577;52.122;5.406;2023-11-21T12:12:59;101949.50;;;9.74;100.00
71735;BME280;59577;52.122;5.406;2023-11-21T12:15:26;101954.59;;;9.75;100.00
71735;BME280;59577;52.122;5.406;2023-11-21T12:17:55;101963.34;;;9.72;100.00
71735;BME280;59577;52.122;5.406;2023-11-21T12:20:23;101961.47;;;9.73;100.00
71735;BME280;59577;52.122;5.406;2023-11-21T12:22:54;101959.06;;;9.71;100.00
71735;BME280;59577;52.122;5.406;2023-11-21T12:25:23;101962.88;;;9.70;100.00
71735;BME280;59577;52.122;5.406;2023-11-21T12:27:53;101962.09;;;9.70;100.00
71735;BME280;59577;52.122;5.406;2023-11-21T12:30:24;101964.16;;;9.64;100.00
71735;BME280;59577;52.122;5.406;2023-11-21T12:32:52;101965.56;;;9.62;100.00
71735;BME280;59577;52.122;5.406;2023-11-21T12:35:22;101963.34;;;9.55;100.00
71735;BME280;59577;52.122;5.406;2023-11-21T12:37:50;101970.81;;;9.49;100.00
71735;BME280;59577;52.122;5.406;2023-11-21T12:40:17;101959.06;;;9.45;100.00
71735;BME280;59577;52.122;5.406;2023-11-21T12:42:46;101966.34;;;9.45;100.00
71735;BME280;59577;52.122;5.406;2023-11-21T12:45:21;101974.78;;;9.43;100.00
71735;BME280;59577;52.122;5.406;2023-11-21T12:47:49;101976.19;;;9.40;100.00
71735;BME280;59577;52.122;5.406;2023-11-21T12:50:25;101979.38;;;9.43;100.00
71735;BME280;59577;52.122;5.406;2023-11-21T12:53:00;101982.09;;;9.43;100.00
71735;BME280;59577;52.122;5.406;2023-11-21T12:55:33;101993.19;;;9.41;100.00
71735;BME280;59577;52.122;5.406;2023-11-21T12:58:03;101991.16;;;9.38;100.00
71735;BME280;59577;52.122;5.406;2023-11-21T13:00:40;101996.22;;;9.39;100.00